createdAt,value
2018-11-29T00:00:37.092Z,1009.41
2018-11-29T00:01:37.079Z,1009.51
2018-11-29T00:02:37.080Z,1009.44
2018-11-29T00:03:37.054Z,1009.46
2018-11-29T00:04:37.045Z,1009.47
2018-11-29T00:05:37.033Z,1009.43
2018-11-29T00:06:37.028Z,1009.47
2018-11-29T00:07:37.018Z,1009.49
2018-11-29T00:08:37.021Z,1009.35
2018-11-29T00:09:37.005Z,1009.51
2018-11-29T00:10:36.998Z,1009.55
2018-11-29T00:11:36.970Z,1009.46
2018-11-29T00:12:36.954Z,1009.52
2018-11-29T00:13:36.945Z,1009.56
2018-11-29T00:14:36.950Z,1009.56
2018-11-29T00:15:36.924Z,1009.49
2018-11-29T00:16:36.918Z,1009.42
2018-11-29T00:17:36.907Z,1009.40
2018-11-29T00:18:36.888Z,1009.50
2018-11-29T00:19:36.878Z,1009.44
2018-11-29T00:20:36.883Z,1009.50
2018-11-29T00:21:36.855Z,1009.57
2018-11-29T00:22:36.844Z,1009.63
2018-11-29T00:23:36.839Z,1009.66
2018-11-29T00:24:36.839Z,1009.61
2018-11-29T00:25:36.825Z,1009.58
2018-11-29T00:26:36.827Z,1009.63
2018-11-29T00:27:36.791Z,1009.64
2018-11-29T00:28:36.778Z,1009.61
2018-11-29T00:29:36.767Z,1009.70
2018-11-29T00:30:36.766Z,1009.69
2018-11-29T00:31:36.762Z,1009.65
2018-11-29T00:32:36.735Z,1009.75
2018-11-29T00:33:36.722Z,1009.75
2018-11-29T00:34:36.711Z,1009.74
2018-11-29T00:35:36.700Z,1009.65
2018-11-29T00:36:36.705Z,1009.67
2018-11-29T00:37:36.700Z,1009.64
2018-11-29T00:38:36.666Z,1009.57
2018-11-29T00:39:36.657Z,1009.55
2018-11-29T00:40:36.649Z,1009.55
2018-11-29T00:41:36.633Z,1009.52
2018-11-29T00:42:36.632Z,1009.51
2018-11-29T00:43:36.630Z,1009.50
2018-11-29T00:44:36.609Z,1009.51
2018-11-29T00:45:36.596Z,1009.48
2018-11-29T00:46:36.590Z,1009.45
2018-11-29T00:47:36.570Z,1009.47
2018-11-29T00:48:36.567Z,1009.50
2018-11-29T00:49:36.578Z,1009.47
2018-11-29T00:50:36.542Z,1009.46
2018-11-29T00:51:36.524Z,1009.38
2018-11-29T00:52:36.524Z,1009.40
2018-11-29T00:53:36.503Z,1009.44
2018-11-29T00:54:36.490Z,1009.42
2018-11-29T00:55:36.504Z,1009.34
2018-11-29T00:56:36.468Z,1009.41
2018-11-29T00:57:36.458Z,1009.43
2018-11-29T00:58:36.487Z,1009.41
2018-11-29T00:59:36.435Z,1009.49
2018-11-29T01:00:36.450Z,1009.56
2018-11-29T01:01:36.425Z,1009.57
2018-11-29T01:02:36.401Z,1009.56
2018-11-29T01:03:36.392Z,1009.55
2018-11-29T01:04:36.379Z,1009.56
2018-11-29T01:05:36.372Z,1009.61
2018-11-29T01:06:36.379Z,1009.59
2018-11-29T01:07:36.353Z,1009.61
2018-11-29T01:08:36.341Z,1009.61
2018-11-29T01:09:36.326Z,1009.71
2018-11-29T01:10:36.315Z,1009.65
2018-11-29T01:11:36.302Z,1009.66
2018-11-29T01:12:36.311Z,1009.67
2018-11-29T01:13:36.282Z,1009.66
2018-11-29T01:14:36.273Z,1009.73
2018-11-29T01:15:36.277Z,1009.70
2018-11-29T01:16:36.246Z,1009.70
2018-11-29T01:17:36.253Z,1009.75
2018-11-29T01:18:36.224Z,1009.67
2018-11-29T01:19:36.214Z,1009.68
2018-11-29T01:20:36.203Z,1009.69
2018-11-29T01:21:36.198Z,1009.67
2018-11-29T01:22:36.186Z,1009.69
2018-11-29T01:23:36.187Z,1009.61
2018-11-29T01:24:36.158Z,1009.65
2018-11-29T01:25:36.148Z,1009.57
2018-11-29T01:26:36.137Z,1009.60
2018-11-29T01:27:36.127Z,1009.48
2018-11-29T01:28:36.122Z,1009.56
2018-11-29T01:29:36.116Z,1009.55
2018-11-29T01:30:36.096Z,1009.45
2018-11-29T01:31:36.093Z,1009.43
2018-11-29T01:32:36.081Z,1009.42
2018-11-29T01:33:36.060Z,1009.39
2018-11-29T01:34:36.070Z,1009.41
2018-11-29T01:35:36.042Z,1009.37
2018-11-29T01:36:36.031Z,1009.38
2018-11-29T01:37:36.015Z,1009.40
2018-11-29T01:38:36.009Z,1009.44
2018-11-29T01:39:36.014Z,1009.39
2018-11-29T01:40:36.004Z,1009.35
2018-11-29T01:41:35.976Z,1009.38
2018-11-29T01:42:35.970Z,1009.39
2018-11-29T01:43:35.950Z,1009.41
2018-11-29T01:44:35.943Z,1009.42
2018-11-29T01:45:35.947Z,1009.46
2018-11-29T01:46:35.944Z,1009.47
2018-11-29T01:47:35.905Z,1009.53
2018-11-29T01:48:35.906Z,1009.52
2018-11-29T01:49:35.883Z,1009.48
2018-11-29T01:50:35.876Z,1009.48
2018-11-29T01:51:35.860Z,1009.50
2018-11-29T01:52:35.864Z,1009.49
2018-11-29T01:53:35.845Z,1009.54
2018-11-29T01:54:35.831Z,1009.57
2018-11-29T01:55:35.817Z,1009.57
2018-11-29T01:56:35.806Z,1009.58
2018-11-29T01:57:35.813Z,1009.60
2018-11-29T01:58:35.786Z,1009.58
2018-11-29T01:59:35.776Z,1009.57
2018-11-29T02:00:35.766Z,1009.55
2018-11-29T02:01:35.760Z,1009.59
2018-11-29T02:02:35.750Z,1009.58
2018-11-29T02:03:35.751Z,1009.54
2018-11-29T02:04:35.716Z,1009.57
2018-11-29T02:05:35.714Z,1009.53
2018-11-29T02:06:35.694Z,1009.54
2018-11-29T02:07:35.682Z,1009.58
2018-11-29T02:08:35.679Z,1009.58
2018-11-29T02:09:35.675Z,1009.53
2018-11-29T02:10:35.650Z,1009.48
2018-11-29T02:11:35.642Z,1009.55
2018-11-29T02:12:35.629Z,1009.50
2018-11-29T02:13:35.623Z,1009.54
2018-11-29T02:14:35.626Z,1009.51
2018-11-29T02:15:35.597Z,1009.56
2018-11-29T02:16:35.583Z,1009.58
2018-11-29T02:17:35.572Z,1009.58
2018-11-29T02:18:35.560Z,1009.61
2018-11-29T02:19:35.565Z,1009.58
2018-11-29T02:20:35.553Z,1009.53
2018-11-29T02:21:35.529Z,1009.51
2018-11-29T02:22:35.518Z,1009.54
2018-11-29T02:23:35.505Z,1009.56
2018-11-29T02:24:35.495Z,1009.54
2018-11-29T02:25:35.492Z,1009.49
2018-11-29T02:26:35.489Z,1009.57
2018-11-29T02:27:35.482Z,1009.52
2018-11-29T02:28:35.450Z,1009.54
2018-11-29T02:29:35.442Z,1009.55
2018-11-29T02:30:35.429Z,1009.52
2018-11-29T02:31:35.424Z,1009.47
2018-11-29T02:32:35.415Z,1009.47
2018-11-29T02:33:35.419Z,1009.46
2018-11-29T02:34:35.383Z,1009.42
2018-11-29T02:35:35.372Z,1009.47
2018-11-29T02:36:35.362Z,1009.49
2018-11-29T02:37:35.351Z,1009.46
2018-11-29T02:38:35.369Z,1009.45
2018-11-29T02:39:35.334Z,1009.41
2018-11-29T02:40:35.325Z,1009.40
2018-11-29T02:41:35.315Z,1009.41
2018-11-29T02:42:35.305Z,1009.44
2018-11-29T02:43:35.300Z,1009.36
2018-11-29T02:44:35.301Z,1009.40
2018-11-29T02:45:35.270Z,1009.38
2018-11-29T02:46:35.253Z,1009.41
2018-11-29T02:47:35.259Z,1009.35
2018-11-29T02:48:35.230Z,1009.28
2018-11-29T02:49:35.219Z,1009.27
2018-11-29T02:50:35.228Z,1009.27
2018-11-29T02:51:35.199Z,1009.20
2018-11-29T02:52:35.187Z,1009.17
2018-11-29T02:53:35.174Z,1009.10
2018-11-29T02:54:35.165Z,1009.20
2018-11-29T02:55:35.167Z,1009.16
2018-11-29T02:56:35.146Z,1009.11
2018-11-29T02:57:35.134Z,1009.14
2018-11-29T02:58:35.126Z,1009.21
2018-11-29T02:59:35.121Z,1009.16
2018-11-29T03:00:35.111Z,1009.20
2018-11-29T03:01:35.104Z,1009.22
2018-11-29T03:02:35.081Z,1009.15
2018-11-29T03:03:35.072Z,1009.16
2018-11-29T03:04:42.608Z,1009.13
2018-11-29T03:05:35.044Z,1009.16
2018-11-29T03:06:35.036Z,1009.11
2018-11-29T03:07:35.069Z,1009.08
2018-11-29T03:08:35.011Z,1009.10
2018-11-29T03:09:35.005Z,1009.10
2018-11-29T03:10:34.993Z,1009.08
2018-11-29T03:11:34.981Z,1009.10
2018-11-29T03:12:35.015Z,1009.09
2018-11-29T03:13:34.969Z,1009.11
2018-11-29T03:14:34.944Z,1009.08
2018-11-29T03:15:34.941Z,1009.09
2018-11-29T03:16:34.958Z,1009.08
2018-11-29T03:17:34.914Z,1009.08
2018-11-29T03:18:34.920Z,1009.06
2018-11-29T03:19:34.894Z,1009.01
2018-11-29T03:20:34.879Z,1009.06
2018-11-29T03:21:34.868Z,1009.05
2018-11-29T03:22:34.903Z,1009.00
2018-11-29T03:23:34.847Z,1008.99
2018-11-29T03:24:34.850Z,1009.00
2018-11-29T03:25:34.822Z,1009.01
2018-11-29T03:26:34.814Z,1008.99
2018-11-29T03:27:34.803Z,1008.99
2018-11-29T03:28:35.033Z,1008.99
2018-11-29T03:29:34.782Z,1009.02
2018-11-29T03:30:34.787Z,1009.04
2018-11-29T03:31:34.773Z,1008.98
2018-11-29T03:32:34.750Z,1009.00
2018-11-29T03:33:34.736Z,1008.98
2018-11-29T03:34:34.737Z,1008.98
2018-11-29T03:35:34.728Z,1009.00
2018-11-29T03:36:34.729Z,1008.99
2018-11-29T03:37:34.694Z,1008.99
2018-11-29T03:38:34.684Z,1009.02
2018-11-29T03:39:34.671Z,1009.01
2018-11-29T03:40:34.666Z,1008.99
2018-11-29T03:41:34.678Z,1009.02
2018-11-29T03:42:34.649Z,1008.98
2018-11-29T03:43:34.626Z,1008.99
2018-11-29T03:44:34.648Z,1008.96
2018-11-29T03:45:34.602Z,1008.97
2018-11-29T03:46:34.593Z,1008.97
2018-11-29T03:47:34.596Z,1008.97
2018-11-29T03:48:34.569Z,1008.98
2018-11-29T03:49:34.562Z,1008.97
2018-11-29T03:50:34.586Z,1008.97
2018-11-29T03:51:34.541Z,1008.98
2018-11-29T03:52:34.527Z,1008.94
2018-11-29T03:53:34.539Z,1008.98
2018-11-29T03:54:34.506Z,1009.00
2018-11-29T03:55:34.494Z,1008.97
2018-11-29T03:56:34.483Z,1008.97
2018-11-29T03:57:34.475Z,1009.00
2018-11-29T03:58:34.462Z,1009.00
2018-11-29T03:59:34.483Z,1008.98
2018-11-29T04:00:34.441Z,1008.99
2018-11-29T04:01:34.425Z,1009.02
2018-11-29T04:02:34.414Z,1009.02
2018-11-29T04:03:34.408Z,1008.96
2018-11-29T04:04:34.393Z,1008.96
2018-11-29T04:05:35.340Z,1008.95
2018-11-29T04:06:34.394Z,1008.99
2018-11-29T04:07:34.362Z,1008.91
2018-11-29T04:08:34.348Z,1008.96
2018-11-29T04:09:34.341Z,1008.96
2018-11-29T04:10:34.339Z,1008.97
2018-11-29T04:11:34.314Z,1008.99
2018-11-29T04:12:34.305Z,1009.01
2018-11-29T04:13:34.330Z,1008.98
2018-11-29T04:14:34.283Z,1008.97
2018-11-29T04:15:34.276Z,1009.06
2018-11-29T04:16:34.273Z,1009.02
2018-11-29T04:17:40.369Z,1009.02
2018-11-29T04:18:35.237Z,1009.03
2018-11-29T04:19:34.255Z,1009.01
2018-11-29T04:20:34.215Z,1008.98
2018-11-29T04:21:34.225Z,1008.96
2018-11-29T04:22:34.196Z,1009.02
2018-11-29T04:23:34.185Z,1009.04
2018-11-29T04:24:34.193Z,1009.04
2018-11-29T04:25:34.184Z,1009.02
2018-11-29T04:26:34.149Z,1009.00
2018-11-29T04:27:34.157Z,1009.02
2018-11-29T04:28:34.127Z,1009.01
2018-11-29T04:29:34.120Z,1009.01
2018-11-29T04:30:34.107Z,1009.03
2018-11-29T04:31:34.096Z,1008.98
2018-11-29T04:32:34.110Z,1008.97
2018-11-29T04:33:34.097Z,1008.98
2018-11-29T04:34:34.083Z,1008.96
2018-11-29T04:35:34.052Z,1008.95
2018-11-29T04:36:34.041Z,1008.89
2018-11-29T04:37:34.030Z,1008.91
2018-11-29T04:38:34.019Z,1008.93
2018-11-29T04:39:34.021Z,1008.97
2018-11-29T04:40:34.032Z,1008.92
2018-11-29T04:41:33.997Z,1008.94
2018-11-29T04:42:33.974Z,1008.88
2018-11-29T04:43:33.971Z,1008.96
2018-11-29T04:44:33.947Z,1008.95
2018-11-29T04:45:33.979Z,1008.93
2018-11-29T04:46:33.933Z,1008.94
2018-11-29T04:47:33.942Z,1008.90
2018-11-29T04:48:33.917Z,1008.91
2018-11-29T04:49:33.898Z,1008.87
2018-11-29T04:50:33.902Z,1008.82
2018-11-29T04:51:33.885Z,1008.80
2018-11-29T04:52:33.877Z,1008.87
2018-11-29T04:53:33.868Z,1008.90
2018-11-29T04:54:33.840Z,1008.89
2018-11-29T04:55:33.829Z,1008.87
2018-11-29T04:56:33.856Z,1008.84
2018-11-29T04:57:33.806Z,1008.82
2018-11-29T04:58:33.797Z,1008.83
2018-11-29T04:59:33.788Z,1008.78
2018-11-29T05:00:33.775Z,1008.74
2018-11-29T05:01:33.767Z,1008.76
2018-11-29T05:02:33.764Z,1008.80
2018-11-29T05:03:33.773Z,1008.78
2018-11-29T05:04:33.730Z,1008.76
2018-11-29T05:05:33.723Z,1008.72
2018-11-29T05:06:33.712Z,1008.71
2018-11-29T05:07:33.712Z,1008.68
2018-11-29T05:08:33.689Z,1008.69
2018-11-29T05:09:33.723Z,1008.68
2018-11-29T05:10:33.663Z,1008.67
2018-11-29T05:11:33.656Z,1008.65
2018-11-29T05:12:33.642Z,1008.63
2018-11-29T05:13:33.648Z,1008.61
2018-11-29T05:14:33.620Z,1008.59
2018-11-29T05:15:33.613Z,1008.60
2018-11-29T05:16:33.601Z,1008.61
2018-11-29T05:17:33.630Z,1008.56
2018-11-29T05:18:33.579Z,1008.60
2018-11-29T05:19:33.578Z,1008.63
2018-11-29T05:20:33.553Z,1008.62
2018-11-29T05:21:33.550Z,1008.66
2018-11-29T05:22:33.534Z,1008.62
2018-11-29T05:23:33.523Z,1008.66
2018-11-29T05:24:33.540Z,1008.67
2018-11-29T05:25:33.498Z,1008.66
2018-11-29T05:26:33.489Z,1008.64
2018-11-29T05:27:33.476Z,1008.61
2018-11-29T05:28:33.466Z,1008.63
2018-11-29T05:29:33.455Z,1008.64
2018-11-29T05:30:33.490Z,1008.59
2018-11-29T05:31:33.455Z,1008.63
2018-11-29T05:32:33.418Z,1008.57
2018-11-29T05:33:33.425Z,1008.62
2018-11-29T05:34:33.403Z,1008.66
2018-11-29T05:35:33.387Z,1008.64
2018-11-29T05:36:33.418Z,1008.63
2018-11-29T05:37:33.371Z,1008.54
2018-11-29T05:38:33.354Z,1008.53
2018-11-29T05:39:33.343Z,1008.60
2018-11-29T05:40:33.333Z,1008.53
2018-11-29T05:41:33.330Z,1008.55
2018-11-29T05:42:33.355Z,1008.59
2018-11-29T05:43:33.298Z,1008.56
2018-11-29T05:44:33.288Z,1008.63
2018-11-29T05:45:33.369Z,1008.59
2018-11-29T05:46:33.266Z,1008.55
2018-11-29T05:47:33.272Z,1008.66
2018-11-29T05:48:33.272Z,1008.61
2018-11-29T05:49:33.235Z,1008.61
2018-11-29T05:50:33.224Z,1008.58
2018-11-29T05:51:33.215Z,1008.50
2018-11-29T05:52:33.219Z,1008.50
2018-11-29T05:53:33.209Z,1008.50
2018-11-29T05:54:33.176Z,1008.49
2018-11-29T05:55:33.168Z,1008.44
2018-11-29T05:56:33.158Z,1008.49
2018-11-29T05:57:33.144Z,1008.49
2018-11-29T05:58:33.176Z,1008.44
2018-11-29T05:59:33.138Z,1008.45
2018-11-29T06:00:33.109Z,1008.51
2018-11-29T06:01:33.100Z,1008.43
2018-11-29T06:02:33.093Z,1008.40
2018-11-29T06:03:33.087Z,1008.42
2018-11-29T06:04:33.079Z,1008.42
2018-11-29T06:05:33.076Z,1008.33
2018-11-29T06:06:33.049Z,1008.31
2018-11-29T06:07:33.033Z,1008.28
2018-11-29T06:08:33.026Z,1008.28
2018-11-29T06:09:33.010Z,1008.25
2018-11-29T06:10:33.038Z,1008.24
2018-11-29T06:11:32.999Z,1008.28
2018-11-29T06:12:33.662Z,1008.30
2018-11-29T06:13:33.009Z,1008.30
2018-11-29T06:14:32.958Z,1008.32
2018-11-29T06:15:32.948Z,1008.27
2018-11-29T06:16:32.948Z,1008.24
2018-11-29T06:17:32.925Z,1008.24
2018-11-29T06:18:32.912Z,1008.28
2018-11-29T06:19:32.900Z,1008.24
2018-11-29T06:20:32.890Z,1008.27
2018-11-29T06:21:32.943Z,1008.28
2018-11-29T06:22:32.866Z,1008.27
2018-11-29T06:23:32.855Z,1008.30
2018-11-29T06:24:32.846Z,1008.31
2018-11-29T06:25:32.835Z,1008.29
2018-11-29T06:26:32.827Z,1008.24
2018-11-29T06:27:32.860Z,1008.30
2018-11-29T06:28:32.809Z,1008.35
2018-11-29T06:29:32.794Z,1008.33
2018-11-29T06:30:32.782Z,1008.32
2018-11-29T06:31:32.782Z,1008.39
2018-11-29T06:32:32.767Z,1008.39
2018-11-29T06:33:32.749Z,1008.39
2018-11-29T06:34:32.752Z,1008.41
2018-11-29T06:35:32.722Z,1008.40
2018-11-29T06:36:32.714Z,1008.37
2018-11-29T06:37:32.728Z,1008.35
2018-11-29T06:38:32.694Z,1008.36
2018-11-29T06:39:32.680Z,1008.37
2018-11-29T06:40:32.668Z,1008.40
2018-11-29T06:41:32.657Z,1008.44
2018-11-29T06:42:32.683Z,1008.35
2018-11-29T06:43:32.718Z,1008.35
2018-11-29T06:44:32.624Z,1008.33
2018-11-29T06:45:32.612Z,1008.32
2018-11-29T06:46:32.600Z,1008.34
2018-11-29T06:47:32.591Z,1008.36
2018-11-29T06:48:32.589Z,1008.36
2018-11-29T06:49:32.595Z,1008.32
2018-11-29T06:50:32.591Z,1008.30
2018-11-29T06:51:32.547Z,1008.31
2018-11-29T06:52:32.537Z,1008.30
2018-11-29T06:53:32.528Z,1008.32
2018-11-29T06:54:32.516Z,1008.24
2018-11-29T06:55:32.514Z,1008.24
2018-11-29T06:56:32.492Z,1008.26
2018-11-29T06:57:32.509Z,1008.31
2018-11-29T06:58:32.467Z,1008.27
2018-11-29T06:59:32.461Z,1008.28
2018-11-29T07:00:32.475Z,1008.24
2018-11-29T07:01:32.432Z,1008.25
2018-11-29T07:02:32.423Z,1008.30
2018-11-29T07:03:32.415Z,1008.24
2018-11-29T07:04:32.400Z,1008.23
2018-11-29T07:05:32.390Z,1008.22
2018-11-29T07:06:32.396Z,1008.20
2018-11-29T07:07:32.371Z,1008.22
2018-11-29T07:08:32.357Z,1008.24
2018-11-29T07:09:32.346Z,1008.16
2018-11-29T07:10:32.411Z,1008.16
2018-11-29T07:11:32.323Z,1008.10
2018-11-29T07:12:32.316Z,1008.07
2018-11-29T07:13:32.301Z,1008.08
2018-11-29T07:14:32.293Z,1008.10
2018-11-29T07:15:32.280Z,1008.11
2018-11-29T07:16:32.317Z,1008.07
2018-11-29T07:17:32.256Z,1008.09
2018-11-29T07:18:32.249Z,1008.15
2018-11-29T07:19:32.237Z,1008.17
2018-11-29T07:20:32.227Z,1008.15
2018-11-29T07:21:32.213Z,1008.16
2018-11-29T07:22:32.250Z,1008.14
2018-11-29T07:23:32.195Z,1008.16
2018-11-29T07:24:32.185Z,1008.13
2018-11-29T07:25:32.171Z,1008.16
2018-11-29T07:26:32.157Z,1008.20
2018-11-29T07:27:32.150Z,1008.17
2018-11-29T07:28:32.205Z,1008.11
2018-11-29T07:29:32.139Z,1008.08
2018-11-29T07:30:32.118Z,1008.12
2018-11-29T07:31:32.105Z,1008.15
2018-11-29T07:32:32.092Z,1008.09
2018-11-29T07:33:32.082Z,1008.10
2018-11-29T07:34:32.099Z,1008.18
2018-11-29T07:35:32.059Z,1008.12
2018-11-29T07:36:32.049Z,1008.07
2018-11-29T07:37:32.037Z,1008.15
2018-11-29T07:38:32.030Z,1008.01
2018-11-29T07:39:32.028Z,1008.08
2018-11-29T07:40:32.067Z,1008.11
2018-11-29T07:41:31.993Z,1008.09
2018-11-29T07:42:32.075Z,1008.07
2018-11-29T07:43:31.971Z,1008.13
2018-11-29T07:44:31.965Z,1008.09
2018-11-29T07:45:31.966Z,1008.10
2018-11-29T07:46:31.939Z,1007.97
2018-11-29T07:47:31.962Z,1008.07
2018-11-29T07:48:31.913Z,1008.06
2018-11-29T07:49:31.907Z,1007.99
2018-11-29T07:50:31.895Z,1008.10
2018-11-29T07:51:31.903Z,1007.99
2018-11-29T07:52:31.876Z,1007.98
2018-11-29T07:53:31.863Z,1008.01
2018-11-29T07:54:31.856Z,1007.97
2018-11-29T07:55:31.851Z,1007.95
2018-11-29T07:56:31.829Z,1007.97
2018-11-29T07:57:31.841Z,1007.99
2018-11-29T07:58:31.805Z,1008.02
2018-11-29T07:59:31.795Z,1008.05
2018-11-29T08:00:31.779Z,1007.98
2018-11-29T08:01:31.795Z,1008.02
2018-11-29T08:02:31.774Z,1008.03
2018-11-29T08:03:31.772Z,1008.03
2018-11-29T08:04:31.741Z,1008.01
2018-11-29T08:05:31.726Z,1007.98
2018-11-29T08:06:31.715Z,1007.99
2018-11-29T08:07:31.744Z,1007.97
2018-11-29T08:08:31.698Z,1007.94
2018-11-29T08:09:31.716Z,1007.95
2018-11-29T08:10:31.676Z,1008.03
2018-11-29T08:11:31.660Z,1007.96
2018-11-29T08:12:31.652Z,1007.98
2018-11-29T08:13:31.684Z,1007.93
2018-11-29T08:14:31.630Z,1007.92
2018-11-29T08:15:31.639Z,1007.92
2018-11-29T08:16:31.609Z,1007.91
2018-11-29T08:17:31.594Z,1007.95
2018-11-29T08:18:31.580Z,1007.95
2018-11-29T08:19:31.570Z,1007.96
2018-11-29T08:20:31.568Z,1007.92
2018-11-29T08:21:31.568Z,1007.95
2018-11-29T08:22:31.540Z,1007.92
2018-11-29T08:23:31.526Z,1007.95
2018-11-29T08:24:31.520Z,1008.05
2018-11-29T08:25:31.504Z,1008.01
2018-11-29T08:26:31.494Z,1008.01
2018-11-29T08:27:31.519Z,1008.01
2018-11-29T08:28:31.474Z,1008.04
2018-11-29T08:29:35.081Z,1008.03
2018-11-29T08:30:31.454Z,1008.01
2018-11-29T08:31:31.444Z,1008.00
2018-11-29T08:32:31.428Z,1008.03
2018-11-29T08:33:31.454Z,1008.03
2018-11-29T08:34:31.406Z,1008.00
2018-11-29T08:35:31.399Z,1007.98
2018-11-29T08:36:31.383Z,1007.98
2018-11-29T08:37:31.375Z,1007.98
2018-11-29T08:38:31.359Z,1007.92
2018-11-29T08:39:31.403Z,1007.95
2018-11-29T08:40:31.371Z,1007.90
2018-11-29T08:41:31.336Z,1007.95
2018-11-29T08:42:31.343Z,1007.86
2018-11-29T08:43:31.336Z,1007.90
2018-11-29T08:44:31.297Z,1007.86
2018-11-29T08:45:31.301Z,1007.78
2018-11-29T08:46:31.274Z,1007.80
2018-11-29T08:47:31.300Z,1007.77
2018-11-29T08:48:31.253Z,1007.76
2018-11-29T08:49:31.243Z,1007.74
2018-11-29T08:50:31.256Z,1007.75
2018-11-29T08:51:31.223Z,1007.68
2018-11-29T08:52:31.208Z,1007.67
2018-11-29T08:53:31.240Z,1007.70
2018-11-29T08:54:31.185Z,1007.73
2018-11-29T08:55:31.180Z,1007.74
2018-11-29T08:56:32.294Z,1007.75
2018-11-29T08:57:54.848Z,1007.80
2018-11-29T08:59:31.127Z,1007.79
2018-11-29T09:00:31.120Z,1007.71
2018-11-29T09:01:31.145Z,1007.66
2018-11-29T09:02:31.116Z,1007.68
2018-11-29T09:03:31.086Z,1007.66
2018-11-29T09:04:31.077Z,1007.61
2018-11-29T09:05:38.615Z,1007.63
2018-11-29T09:06:31.064Z,1007.57
2018-11-29T09:07:31.060Z,1007.66
2018-11-29T09:08:31.038Z,1007.54
2018-11-29T09:09:31.024Z,1007.57
2018-11-29T09:10:31.760Z,1007.64
2018-11-29T09:11:30.998Z,1007.61
2018-11-29T09:12:30.991Z,1007.63
2018-11-29T09:13:30.989Z,1007.66
2018-11-29T09:14:30.964Z,1007.68
2018-11-29T09:15:31.010Z,1007.64
2018-11-29T09:16:30.945Z,1007.65
2018-11-29T09:17:30.936Z,1007.69
2018-11-29T09:18:30.923Z,1007.69
2018-11-29T09:19:30.928Z,1007.76
2018-11-29T09:20:30.897Z,1007.68
2018-11-29T09:21:30.889Z,1007.74
2018-11-29T09:22:30.886Z,1007.75
2018-11-29T09:23:30.866Z,1007.72
2018-11-29T09:24:30.855Z,1007.67
2018-11-29T09:25:30.874Z,1007.77
2018-11-29T09:26:30.832Z,1007.79
2018-11-29T09:27:30.823Z,1007.80
2018-11-29T09:28:30.818Z,1007.79
2018-11-29T09:29:30.800Z,1007.83
2018-11-29T09:30:30.802Z,1007.82
2018-11-29T09:31:30.803Z,1007.92
2018-11-29T09:32:30.773Z,1007.85
2018-11-29T09:33:30.761Z,1007.89
2018-11-29T09:34:30.749Z,1007.93
2018-11-29T09:35:30.736Z,1007.89
2018-11-29T09:36:30.777Z,1007.91
2018-11-29T09:37:30.774Z,1007.85
2018-11-29T09:38:30.703Z,1007.86
2018-11-29T09:39:30.698Z,1007.85
2018-11-29T09:40:30.682Z,1007.87
2018-11-29T09:41:30.672Z,1007.84
2018-11-29T09:42:30.673Z,1007.88
2018-11-29T09:43:30.677Z,1007.91
2018-11-29T09:44:30.640Z,1007.88
2018-11-29T09:45:30.630Z,1007.92
2018-11-29T09:46:30.618Z,1007.91
2018-11-29T09:47:30.606Z,1007.87
2018-11-29T09:48:30.617Z,1007.92
2018-11-29T09:49:30.583Z,1007.89
2018-11-29T09:50:30.574Z,1007.92
2018-11-29T09:51:30.593Z,1007.83
2018-11-29T09:52:30.567Z,1007.81
2018-11-29T09:53:30.570Z,1007.83
2018-11-29T09:54:30.537Z,1007.80
2018-11-29T09:55:30.518Z,1007.77
2018-11-29T09:56:30.511Z,1007.82
2018-11-29T09:57:30.496Z,1007.75
2018-11-29T09:58:30.516Z,1007.80
2018-11-29T09:59:30.491Z,1007.76
2018-11-29T10:00:30.462Z,1007.85
2018-11-29T10:01:30.452Z,1007.75
2018-11-29T10:02:30.440Z,1007.74
2018-11-29T10:03:30.427Z,1007.82
2018-11-29T10:04:30.446Z,1007.74
2018-11-29T10:05:30.422Z,1007.70
2018-11-29T10:06:30.394Z,1007.62
2018-11-29T10:07:30.382Z,1007.71
2018-11-29T10:08:30.375Z,1007.66
2018-11-29T10:09:30.364Z,1007.69
2018-11-29T10:10:30.362Z,1007.68
2018-11-29T10:11:30.354Z,1007.67
2018-11-29T10:12:30.333Z,1007.66
2018-11-29T10:13:30.318Z,1007.60
2018-11-29T10:14:30.313Z,1007.54
2018-11-29T10:15:30.294Z,1007.47
2018-11-29T10:16:30.311Z,1007.51
2018-11-29T10:17:30.272Z,1007.49
2018-11-29T10:18:30.267Z,1007.51
2018-11-29T10:19:30.256Z,1007.53
2018-11-29T10:20:30.238Z,1007.49
2018-11-29T10:21:30.230Z,1007.48
2018-11-29T10:22:30.240Z,1007.44
2018-11-29T10:23:30.212Z,1007.41
2018-11-29T10:24:30.200Z,1007.40
2018-11-29T10:25:30.199Z,1007.39
2018-11-29T10:26:30.181Z,1007.30
2018-11-29T10:27:30.162Z,1007.38
2018-11-29T10:28:30.169Z,1007.40
2018-11-29T10:29:30.193Z,1007.38
2018-11-29T10:30:30.129Z,1007.35
2018-11-29T10:31:30.118Z,1007.34
2018-11-29T10:32:30.109Z,1007.34
2018-11-29T10:33:30.104Z,1007.34
2018-11-29T10:34:30.102Z,1007.39
2018-11-29T10:35:30.087Z,1007.34
2018-11-29T10:36:30.077Z,1007.39
2018-11-29T10:37:30.057Z,1007.39
2018-11-29T10:38:30.045Z,1007.39
2018-11-29T10:39:30.039Z,1007.32
2018-11-29T10:40:30.057Z,1007.38
2018-11-29T10:41:30.339Z,1007.35
2018-11-29T10:42:30.001Z,1007.32
2018-11-29T10:43:29.994Z,1007.35
2018-11-29T10:44:29.981Z,1007.32
2018-11-29T10:45:29.973Z,1007.28
2018-11-29T10:46:29.978Z,1007.34
2018-11-29T10:47:29.944Z,1007.28
2018-11-29T10:48:29.936Z,1007.29
2018-11-29T10:49:29.962Z,1007.22
2018-11-29T10:50:29.919Z,1007.24
2018-11-29T10:51:29.905Z,1007.25
2018-11-29T10:52:29.912Z,1007.22
2018-11-29T10:53:36.313Z,1007.21
2018-11-29T10:54:30.870Z,1007.18
2018-11-29T10:55:29.874Z,1007.15
2018-11-29T10:56:29.892Z,1007.14
2018-11-29T10:57:29.843Z,1007.11
2018-11-29T10:58:29.868Z,1007.06
2018-11-29T10:59:29.816Z,1007.08
2018-11-29T11:00:29.806Z,1007.01
2018-11-29T11:01:29.808Z,1007.03
2018-11-29T11:02:29.779Z,1007.03
2018-11-29T11:03:29.773Z,1006.98
2018-11-29T11:04:29.802Z,1006.97
2018-11-29T11:05:29.751Z,1007.01
2018-11-29T11:06:29.743Z,1006.92
2018-11-29T11:07:29.726Z,1006.97
2018-11-29T11:08:29.716Z,1007.01
2018-11-29T11:09:29.710Z,1006.94
2018-11-29T11:10:29.732Z,1006.84
2018-11-29T11:11:29.681Z,1006.85
2018-11-29T11:12:29.670Z,1006.85
2018-11-29T11:13:29.663Z,1006.77
2018-11-29T11:14:29.648Z,1006.67
2018-11-29T11:15:29.658Z,1006.59
2018-11-29T11:16:29.643Z,1006.52
2018-11-29T11:17:29.617Z,1006.57
2018-11-29T11:18:29.608Z,1006.62
2018-11-29T11:19:29.592Z,1006.65
2018-11-29T11:20:29.585Z,1006.57
2018-11-29T11:21:29.595Z,1006.57
2018-11-29T11:22:29.566Z,1006.61
2018-11-29T11:23:29.551Z,1006.56
2018-11-29T11:24:29.539Z,1006.53
2018-11-29T11:25:29.526Z,1006.53
2018-11-29T11:26:29.521Z,1006.51
2018-11-29T11:27:29.535Z,1006.57
2018-11-29T11:28:29.501Z,1006.63
2018-11-29T11:29:29.497Z,1006.61
2018-11-29T11:30:29.514Z,1006.58
2018-11-29T11:31:31.130Z,1006.54
2018-11-29T11:32:29.455Z,1006.67
2018-11-29T11:33:29.477Z,1006.63
2018-11-29T11:34:29.429Z,1006.67
2018-11-29T11:35:29.416Z,1006.67
2018-11-29T11:36:29.409Z,1006.65
2018-11-29T11:37:29.423Z,1006.53
2018-11-29T11:38:29.382Z,1006.48
2018-11-29T11:39:29.388Z,1006.47
2018-11-29T11:40:29.363Z,1006.41
2018-11-29T11:41:29.351Z,1006.39
2018-11-29T11:42:29.339Z,1006.35
2018-11-29T11:43:29.348Z,1006.31
2018-11-29T11:44:29.363Z,1006.31
2018-11-29T11:45:29.315Z,1006.28
2018-11-29T11:46:29.295Z,1006.33
2018-11-29T11:47:29.290Z,1006.25
2018-11-29T11:48:29.273Z,1006.20
2018-11-29T11:49:29.285Z,1006.17
2018-11-29T11:50:29.277Z,1006.17
2018-11-29T11:51:29.250Z,1006.08
2018-11-29T11:52:29.233Z,1006.02
2018-11-29T11:53:29.232Z,1006.04
2018-11-29T11:54:29.210Z,1006.05
2018-11-29T11:55:30.267Z,1006.12
2018-11-29T11:56:29.204Z,1006.09
2018-11-29T11:57:29.175Z,1006.13
2018-11-29T11:58:29.164Z,1006.17
2018-11-29T11:59:29.155Z,1006.17
2018-11-29T12:00:29.143Z,1006.13
2018-11-29T12:01:29.151Z,1006.11
2018-11-29T12:02:29.138Z,1006.02
2018-11-29T12:03:29.113Z,1006.03
2018-11-29T12:04:29.104Z,1005.99
2018-11-29T12:05:29.090Z,1005.90
2018-11-29T12:06:29.078Z,1005.75